sensor_id;sensor_type;location;lat;lon;timestamp;P1;durP1;ratioP1;P2;durP2;ratioP2
42690;SDS011;28306;55.744;37.578;2022-09-13T00:01:45;1.98;;;1.58;;
42690;SDS011;28306;55.744;37.578;2022-09-13T00:04:11;1.92;;;1.17;;
42690;SDS011;28306;55.744;37.578;2022-09-13T00:06:36;2.35;;;1.45;;
42690;SDS011;28306;55.744;37.578;2022-09-13T00:09:02;2.83;;;1.17;;
42690;SDS011;28306;55.744;37.578;2022-09-13T00:11:28;2.17;;;1.45;;
42690;SDS011;28306;55.744;37.578;2022-09-13T00:13:55;2.10;;;1.45;;
42690;SDS011;28306;55.744;37.578;2022-09-13T00:16:23;1.90;;;1.40;;
42690;SDS011;28306;55.744;37.578;2022-09-13T00:18:50;2.65;;;1.35;;
42690;SDS011;28306;55.744;37.578;2022-09-13T00:21:17;2.00;;;1.35;;
42690;SDS011;28306;55.744;37.578;2022-09-13T00:23:49;2.30;;;1.67;;
42690;SDS011;28306;55.744;37.578;2022-09-13T00:26:17;2.05;;;1.30;;
42690;SDS011;28306;55.744;37.578;2022-09-13T00:28:44;2.10;;;1.30;;
42690;SDS011;28306;55.744;37.578;2022-09-13T00:31:15;2.55;;;1.60;;
42690;SDS011;28306;55.744;37.578;2022-09-13T00:33:41;2.60;;;1.50;;
42690;SDS011;28306;55.744;37.578;2022-09-13T00:36:09;2.10;;;1.30;;
42690;SDS011;28306;55.744;37.578;2022-09-13T00:38:38;2.67;;;1.50;;
42690;SDS011;28306;55.744;37.578;2022-09-13T00:41:05;1.88;;;1.40;;
42690;SDS011;28306;55.744;37.578;2022-09-13T00:46:11;2.35;;;1.30;;
42690;SDS011;28306;55.744;37.578;2022-09-13T00:48:41;2.08;;;1.40;;
42690;SDS011;28306;55.744;37.578;2022-09-13T00:51:11;2.10;;;1.27;;
42690;SDS011;28306;55.744;37.578;2022-09-13T00:53:38;1.98;;;1.20;;
42690;SDS011;28306;55.744;37.578;2022-09-13T00:56:08;2.05;;;1.40;;
42690;SDS011;28306;55.744;37.578;2022-09-13T00:58:53;2.25;;;1.55;;
42690;SDS011;28306;55.744;37.578;2022-09-13T01:01:25;2.58;;;1.50;;
42690;SDS011;28306;55.744;37.578;2022-09-13T01:03:57;2.00;;;1.30;;
42690;SDS011;28306;55.744;37.578;2022-09-13T01:06:24;2.08;;;1.48;;
42690;SDS011;28306;55.744;37.578;2022-09-13T01:08:53;2.83;;;1.60;;
42690;SDS011;28306;55.744;37.578;2022-09-13T01:11:29;2.53;;;1.48;;
42690;SDS011;28306;55.744;37.578;2022-09-13T01:14:05;1.85;;;1.33;;
42690;SDS011;28306;55.744;37.578;2022-09-13T01:16:32;2.00;;;1.33;;
42690;SDS011;28306;55.744;37.578;2022-09-13T01:18:59;2.17;;;1.40;;
42690;SDS011;28306;55.744;37.578;2022-09-13T01:51:50;1.73;;;1.08;;
42690;SDS011;28306;55.744;37.578;2022-09-13T01:54:56;2.10;;;1.50;;
42690;SDS011;28306;55.744;37.578;2022-09-13T01:57:14;2.08;;;1.58;;
42690;SDS011;28306;55.744;37.578;2022-09-13T01:59:52;2.80;;;1.60;;
42690;SDS011;28306;55.744;37.578;2022-09-13T02:02:21;2.85;;;1.70;;
42690;SDS011;28306;55.744;37.578;2022-09-13T02:08:03;1.45;;;1.10;;
42690;SDS011;28306;55.744;37.578;2022-09-13T02:10:34;2.40;;;1.80;;
42690;SDS011;28306;55.744;37.578;2022-09-13T02:13:04;2.63;;;1.40;;
42690;SDS011;28306;55.744;37.578;2022-09-13T02:15:36;2.08;;;1.33;;
42690;SDS011;28306;55.744;37.578;2022-09-13T02:18:09;2.28;;;1.30;;
42690;SDS011;28306;55.744;37.578;2022-09-13T02:20:41;2.03;;;1.48;;
42690;SDS011;28306;55.744;37.578;2022-09-13T02:23:27;2.47;;;1.40;;
42690;SDS011;28306;55.744;37.578;2022-09-13T02:25:58;2.72;;;1.35;;
42690;SDS011;28306;55.744;37.578;2022-09-13T02:28:28;2.10;;;1.60;;
42690;SDS011;28306;55.744;37.578;2022-09-13T02:31:03;2.40;;;1.58;;
42690;SDS011;28306;55.744;37.578;2022-09-13T02:33:53;2.05;;;1.50;;
42690;SDS011;28306;55.744;37.578;2022-09-13T02:36:23;2.17;;;1.48;;
42690;SDS011;28306;55.744;37.578;2022-09-13T02:38:55;2.15;;;1.45;;
42690;SDS011;28306;55.744;37.578;2022-09-13T02:41:26;2.40;;;1.58;;
42690;SDS011;28306;55.744;37.578;2022-09-13T02:52:47;1.80;;;1.25;;
42690;SDS011;28306;55.744;37.578;2022-09-13T02:55:46;2.90;;;1.40;;
42690;SDS011;28306;55.744;37.578;2022-09-13T03:01:10;3.97;;;1.58;;
42690;SDS011;28306;55.744;37.578;2022-09-13T03:03:36;2.50;;;1.70;;
42690;SDS011;28306;55.744;37.578;2022-09-13T03:06:02;2.30;;;1.45;;
42690;SDS011;28306;55.744;37.578;2022-09-13T03:08:28;1.80;;;1.17;;
42690;SDS011;28306;55.744;37.578;2022-09-13T03:14:00;2.75;;;1.55;;
42690;SDS011;28306;55.744;37.578;2022-09-13T03:30:14;2.25;;;1.45;;
42690;SDS011;28306;55.744;37.578;2022-09-13T03:38:37;1.80;;;1.25;;
42690;SDS011;28306;55.744;37.578;2022-09-13T03:41:08;3.20;;;1.48;;
42690;SDS011;28306;55.744;37.578;2022-09-13T03:43:52;1.98;;;1.33;;
42690;SDS011;28306;55.744;37.578;2022-09-13T03:49:22;2.08;;;1.50;;
42690;SDS011;28306;55.744;37.578;2022-09-13T03:51:50;2.40;;;1.63;;
42690;SDS011;28306;55.744;37.578;2022-09-13T03:54:29;2.40;;;1.60;;
42690;SDS011;28306;55.744;37.578;2022-09-13T03:57:13;2.10;;;1.50;;
42690;SDS011;28306;55.744;37.578;2022-09-13T03:59:48;2.22;;;1.42;;
42690;SDS011;28306;55.744;37.578;2022-09-13T04:02:16;2.10;;;1.60;;
42690;SDS011;28306;55.744;37.578;2022-09-13T04:04:44;1.92;;;1.33;;
42690;SDS011;28306;55.744;37.578;2022-09-13T04:07:11;1.90;;;1.45;;
42690;SDS011;28306;55.744;37.578;2022-09-13T04:09:38;3.33;;;1.30;;
42690;SDS011;28306;55.744;37.578;2022-09-13T04:12:04;2.20;;;1.33;;
42690;SDS011;28306;55.744;37.578;2022-09-13T04:14:30;2.08;;;1.50;;
42690;SDS011;28306;55.744;37.578;2022-09-13T04:16:56;2.17;;;1.50;;
42690;SDS011;28306;55.744;37.578;2022-09-13T04:19:22;2.22;;;1.65;;
42690;SDS011;28306;55.744;37.578;2022-09-13T04:21:49;1.88;;;1.38;;
42690;SDS011;28306;55.744;37.578;2022-09-13T04:24:17;2.00;;;1.40;;
42690;SDS011;28306;55.744;37.578;2022-09-13T04:26:44;2.30;;;1.45;;
42690;SDS011;28306;55.744;37.578;2022-09-13T04:29:13;2.35;;;1.58;;
42690;SDS011;28306;55.744;37.578;2022-09-13T04:31:39;2.63;;;1.60;;
42690;SDS011;28306;55.744;37.578;2022-09-13T04:34:04;1.80;;;1.38;;
42690;SDS011;28306;55.744;37.578;2022-09-13T04:36:31;2.33;;;1.48;;
42690;SDS011;28306;55.744;37.578;2022-09-13T04:38:57;2.00;;;1.60;;
42690;SDS011;28306;55.744;37.578;2022-09-13T04:41:24;2.00;;;1.50;;
42690;SDS011;28306;55.744;37.578;2022-09-13T04:43:49;2.40;;;1.35;;
42690;SDS011;28306;55.744;37.578;2022-09-13T04:46:15;2.90;;;1.63;;
42690;SDS011;28306;55.744;37.578;2022-09-13T04:48:42;2.35;;;1.33;;
42690;SDS011;28306;55.744;37.578;2022-09-13T04:51:07;1.90;;;1.40;;
42690;SDS011;28306;55.744;37.578;2022-09-13T04:53:33;2.13;;;1.40;;
42690;SDS011;28306;55.744;37.578;2022-09-13T04:56:02;2.85;;;1.52;;
42690;SDS011;28306;55.744;37.578;2022-09-13T04:58:29;2.88;;;1.40;;
42690;SDS011;28306;55.744;37.578;2022-09-13T05:00:59;2.25;;;1.38;;
42690;SDS011;28306;55.744;37.578;2022-09-13T05:03:28;2.88;;;1.85;;
42690;SDS011;28306;55.744;37.578;2022-09-13T05:05:59;2.10;;;1.45;;
42690;SDS011;28306;55.744;37.578;2022-09-13T05:08:28;2.15;;;1.30;;
42690;SDS011;28306;55.744;37.578;2022-09-13T05:10:54;2.10;;;1.17;;
42690;SDS011;28306;55.744;37.578;2022-09-13T05:13:20;2.40;;;1.40;;
42690;SDS011;28306;55.744;37.578;2022-09-13T05:15:46;3.78;;;1.58;;
42690;SDS011;28306;55.744;37.578;2022-09-13T05:18:11;1.80;;;1.30;;
42690;SDS011;28306;55.744;37.578;2022-09-13T05:20:37;2.17;;;1.60;;
42690;SDS011;28306;55.744;37.578;2022-09-13T05:23:02;3.17;;;1.63;;
42690;SDS011;28306;55.744;37.578;2022-09-13T05:25:28;2.45;;;1.75;;
42690;SDS011;28306;55.744;37.578;2022-09-13T05:27:54;1.97;;;1.40;;
42690;SDS011;28306;55.744;37.578;2022-09-13T05:30:23;2.17;;;1.50;;
42690;SDS011;28306;55.744;37.578;2022-09-13T05:32:48;2.05;;;1.30;;
42690;SDS011;28306;55.744;37.578;2022-09-13T05:35:14;3.33;;;1.58;;
42690;SDS011;28306;55.744;37.578;2022-09-13T05:37:40;2.30;;;1.50;;
42690;SDS011;28306;55.744;37.578;2022-09-13T05:40:06;2.88;;;1.48;;
42690;SDS011;28306;55.744;37.578;2022-09-13T05:42:32;1.92;;;1.33;;
42690;SDS011;28306;55.744;37.578;2022-09-13T05:44:57;2.88;;;1.60;;
42690;SDS011;28306;55.744;37.578;2022-09-13T05:47:23;2.30;;;1.40;;
42690;SDS011;28306;55.744;37.578;2022-09-13T05:49:48;3.08;;;1.65;;
42690;SDS011;28306;55.744;37.578;2022-09-13T05:52:14;2.20;;;1.38;;
42690;SDS011;28306;55.744;37.578;2022-09-13T05:54:39;2.35;;;1.45;;
42690;SDS011;28306;55.744;37.578;2022-09-13T05:57:05;3.90;;;1.70;;
42690;SDS011;28306;55.744;37.578;2022-09-13T05:59:31;2.38;;;1.30;;
42690;SDS011;28306;55.744;37.578;2022-09-13T06:01:57;2.10;;;1.63;;
42690;SDS011;28306;55.744;37.578;2022-09-13T06:04:23;2.60;;;1.33;;
42690;SDS011;28306;55.744;37.578;2022-09-13T06:06:48;2.33;;;1.30;;
42690;SDS011;28306;55.744;37.578;2022-09-13T06:09:14;2.67;;;1.50;;
42690;SDS011;28306;55.744;37.578;2022-09-13T06:11:40;2.25;;;1.58;;
42690;SDS011;28306;55.744;37.578;2022-09-13T06:14:05;2.03;;;1.50;;
42690;SDS011;28306;55.744;37.578;2022-09-13T06:16:31;2.42;;;1.67;;
42690;SDS011;28306;55.744;37.578;2022-09-13T06:18:57;2.33;;;1.52;;
42690;SDS011;28306;55.744;37.578;2022-09-13T06:21:23;2.20;;;1.42;;
42690;SDS011;28306;55.744;37.578;2022-09-13T06:23:51;2.50;;;1.63;;
42690;SDS011;28306;55.744;37.578;2022-09-13T06:26:19;2.30;;;1.42;;
42690;SDS011;28306;55.744;37.578;2022-09-13T06:28:47;2.50;;;1.70;;
42690;SDS011;28306;55.744;37.578;2022-09-13T06:31:15;2.45;;;1.55;;
42690;SDS011;28306;55.744;37.578;2022-09-13T06:33:41;2.58;;;1.67;;
42690;SDS011;28306;55.744;37.578;2022-09-13T06:36:11;6.03;;;1.85;;
42690;SDS011;28306;55.744;37.578;2022-09-13T06:38:39;2.08;;;1.40;;
42690;SDS011;28306;55.744;37.578;2022-09-13T06:41:09;2.15;;;1.50;;
42690;SDS011;28306;55.744;37.578;2022-09-13T06:43:36;3.08;;;1.77;;
42690;SDS011;28306;55.744;37.578;2022-09-13T06:46:04;2.00;;;1.40;;
42690;SDS011;28306;55.744;37.578;2022-09-13T06:48:33;2.47;;;1.50;;
42690;SDS011;28306;55.744;37.578;2022-09-13T06:51:00;2.67;;;1.48;;
42690;SDS011;28306;55.744;37.578;2022-09-13T06:53:26;2.40;;;1.30;;
42690;SDS011;28306;55.744;37.578;2022-09-13T06:58:39;2.30;;;1.38;;
42690;SDS011;28306;55.744;37.578;2022-09-13T07:01:11;3.60;;;1.55;;
42690;SDS011;28306;55.744;37.578;2022-09-13T07:03:38;3.33;;;1.60;;
42690;SDS011;28306;55.744;37.578;2022-09-13T07:06:05;2.10;;;1.40;;
42690;SDS011;28306;55.744;37.578;2022-09-13T07:08:34;3.20;;;1.38;;
42690;SDS011;28306;55.744;37.578;2022-09-13T07:11:01;3.45;;;1.92;;
42690;SDS011;28306;55.744;37.578;2022-09-13T07:13:26;3.45;;;1.85;;
42690;SDS011;28306;55.744;37.578;2022-09-13T07:15:52;2.22;;;1.50;;
42690;SDS011;28306;55.744;37.578;2022-09-13T07:18:18;3.97;;;1.48;;
42690;SDS011;28306;55.744;37.578;2022-09-13T07:20:44;2.40;;;1.50;;
42690;SDS011;28306;55.744;37.578;2022-09-13T07:23:09;2.58;;;1.65;;
42690;SDS011;28306;55.744;37.578;2022-09-13T07:25:35;2.55;;;1.60;;
42690;SDS011;28306;55.744;37.578;2022-09-13T07:28:00;3.33;;;1.40;;
42690;SDS011;28306;55.744;37.578;2022-09-13T07:30:26;2.80;;;1.70;;
42690;SDS011;28306;55.744;37.578;2022-09-13T07:32:52;2.80;;;1.67;;
42690;SDS011;28306;55.744;37.578;2022-09-13T07:35:17;2.33;;;1.63;;
42690;SDS011;28306;55.744;37.578;2022-09-13T07:37:43;2.33;;;1.60;;
42690;SDS011;28306;55.744;37.578;2022-09-13T07:40:10;2.83;;;1.50;;
42690;SDS011;28306;55.744;37.578;2022-09-13T07:42:36;2.75;;;1.77;;
42690;SDS011;28306;55.744;37.578;2022-09-13T07:45:05;2.63;;;1.65;;
42690;SDS011;28306;55.744;37.578;2022-09-13T07:47:31;4.15;;;1.63;;
42690;SDS011;28306;55.744;37.578;2022-09-13T07:49:57;7.43;;;1.88;;
42690;SDS011;28306;55.744;37.578;2022-09-13T07:52:23;2.88;;;1.80;;
42690;SDS011;28306;55.744;37.578;2022-09-13T07:54:49;4.57;;;1.83;;
42690;SDS011;28306;55.744;37.578;2022-09-13T07:57:14;2.65;;;1.58;;
42690;SDS011;28306;55.744;37.578;2022-09-13T07:59:40;4.47;;;1.80;;
42690;SDS011;28306;55.744;37.578;2022-09-13T08:02:07;2.50;;;1.60;;
42690;SDS011;28306;55.744;37.578;2022-09-13T08:04:33;3.45;;;1.80;;
42690;SDS011;28306;55.744;37.578;2022-09-13T08:07:00;3.20;;;1.70;;
42690;SDS011;28306;55.744;37.578;2022-09-13T08:09:25;3.53;;;1.70;;
42690;SDS011;28306;55.744;37.578;2022-09-13T08:11:51;2.65;;;1.45;;
42690;SDS011;28306;55.744;37.578;2022-09-13T08:14:20;2.28;;;1.52;;
42690;SDS011;28306;55.744;37.578;2022-09-13T08:16:47;4.18;;;1.60;;
42690;SDS011;28306;55.744;37.578;2022-09-13T08:19:17;2.95;;;1.80;;
42690;SDS011;28306;55.744;37.578;2022-09-13T08:21:43;2.58;;;1.67;;
42690;SDS011;28306;55.744;37.578;2022-09-13T08:24:12;3.10;;;1.80;;
42690;SDS011;28306;55.744;37.578;2022-09-13T08:26:40;2.45;;;1.70;;
42690;SDS011;28306;55.744;37.578;2022-09-13T08:29:06;2.45;;;1.65;;
42690;SDS011;28306;55.744;37.578;2022-09-13T08:31:32;3.42;;;2.10;;
42690;SDS011;28306;55.744;37.578;2022-09-13T08:33:58;6.00;;;1.77;;
42690;SDS011;28306;55.744;37.578;2022-09-13T08:36:24;11.63;;;2.05;;
42690;SDS011;28306;55.744;37.578;2022-09-13T08:38:52;6.28;;;2.13;;
42690;SDS011;28306;55.744;37.578;2022-09-13T08:44:24;4.78;;;2.35;;
42690;SDS011;28306;55.744;37.578;2022-09-13T08:49:25;5.72;;;2.08;;
42690;SDS011;28306;55.744;37.578;2022-09-13T08:51:58;7.15;;;2.05;;
42690;SDS011;28306;55.744;37.578;2022-09-13T08:54:34;4.60;;;1.90;;
42690;SDS011;28306;55.744;37.578;2022-09-13T08:57:02;3.08;;;2.05;;
42690;SDS011;28306;55.744;37.578;2022-09-13T09:02:20;4.85;;;2.10;;
42690;SDS011;28306;55.744;37.578;2022-09-13T09:07:39;5.63;;;1.98;;
42690;SDS011;28306;55.744;37.578;2022-09-13T09:10:15;5.68;;;2.30;;
42690;SDS011;28306;55.744;37.578;2022-09-13T09:15:13;3.22;;;2.00;;
42690;SDS011;28306;55.744;37.578;2022-09-13T09:20:46;4.85;;;1.65;;
42690;SDS011;28306;55.744;37.578;2022-09-13T09:25:50;2.88;;;1.83;;
42690;SDS011;28306;55.744;37.578;2022-09-13T09:28:21;3.72;;;1.90;;
42690;SDS011;28306;55.744;37.578;2022-09-13T09:30:58;3.13;;;2.08;;
42690;SDS011;28306;55.744;37.578;2022-09-13T09:38:53;4.28;;;2.03;;
42690;SDS011;28306;55.744;37.578;2022-09-13T09:41:27;2.90;;;1.80;;
42690;SDS011;28306;55.744;37.578;2022-09-13T09:46:29;6.43;;;1.52;;
42690;SDS011;28306;55.744;37.578;2022-09-13T09:49:23;3.60;;;1.83;;
42690;SDS011;28306;55.744;37.578;2022-09-13T09:52:09;3.13;;;1.70;;
42690;SDS011;28306;55.744;37.578;2022-09-13T09:54:39;2.67;;;1.85;;
42690;SDS011;28306;55.744;37.578;2022-09-13T09:57:05;7.03;;;1.83;;
42690;SDS011;28306;55.744;37.578;2022-09-13T09:59:32;3.05;;;1.63;;
42690;SDS011;28306;55.744;37.578;2022-09-13T10:01:59;5.05;;;1.90;;
42690;SDS011;28306;55.744;37.578;2022-09-13T10:04:26;2.47;;;1.45;;
42690;SDS011;28306;55.744;37.578;2022-09-13T10:07:09;4.20;;;1.70;;
42690;SDS011;28306;55.744;37.578;2022-09-13T10:10:05;3.88;;;1.67;;
42690;SDS011;28306;55.744;37.578;2022-09-13T10:12:56;4.07;;;1.25;;
42690;SDS011;28306;55.744;37.578;2022-09-13T10:15:27;2.90;;;1.40;;
42690;SDS011;28306;55.744;37.578;2022-09-13T10:18:13;4.25;;;1.60;;
42690;SDS011;28306;55.744;37.578;2022-09-13T10:20:41;3.33;;;1.73;;
42690;SDS011;28306;55.744;37.578;2022-09-13T10:23:24;3.15;;;1.70;;
42690;SDS011;28306;55.744;37.578;2022-09-13T10:25:59;4.03;;;1.58;;
42690;SDS011;28306;55.744;37.578;2022-09-13T10:28:44;3.33;;;1.63;;
42690;SDS011;28306;55.744;37.578;2022-09-13T10:31:21;2.60;;;1.42;;
42690;SDS011;28306;55.744;37.578;2022-09-13T10:34:03;4.03;;;1.70;;
42690;SDS011;28306;55.744;37.578;2022-09-13T10:39:24;3.08;;;1.50;;
42690;SDS011;28306;55.744;37.578;2022-09-13T10:41:51;3.00;;;1.42;;
42690;SDS011;28306;55.744;37.578;2022-09-13T10:44:42;4.10;;;1.63;;
42690;SDS011;28306;55.744;37.578;2022-09-13T10:47:12;4.10;;;1.70;;
42690;SDS011;28306;55.744;37.578;2022-09-13T10:55:44;1.80;;;1.15;;
42690;SDS011;28306;55.744;37.578;2022-09-13T10:57:45;1.67;;;1.13;;
42690;SDS011;28306;55.744;37.578;2022-09-13T11:00:57;2.22;;;1.33;;
42690;SDS011;28306;55.744;37.578;2022-09-13T11:11:40;4.68;;;1.70;;
42690;SDS011;28306;55.744;37.578;2022-09-13T11:17:21;5.18;;;1.58;;
42690;SDS011;28306;55.744;37.578;2022-09-13T11:27:59;4.80;;;1.77;;
42690;SDS011;28306;55.744;37.578;2022-09-13T11:39:01;3.42;;;1.20;;
42690;SDS011;28306;55.744;37.578;2022-09-13T11:44:25;9.50;;;1.98;;
42690;SDS011;28306;55.744;37.578;2022-09-13T11:49:51;8.63;;;2.08;;
42690;SDS011;28306;55.744;37.578;2022-09-13T11:55:42;11.60;;;1.87;;
42690;SDS011;28306;55.744;37.578;2022-09-13T11:58:25;10.80;;;1.70;;
42690;SDS011;28306;55.744;37.578;2022-09-13T12:01:00;7.95;;;1.65;;
42690;SDS011;28306;55.744;37.578;2022-09-13T12:03:37;9.40;;;1.55;;
42690;SDS011;28306;55.744;37.578;2022-09-13T12:06:13;6.65;;;1.48;;
42690;SDS011;28306;55.744;37.578;2022-09-13T12:08:45;7.20;;;1.80;;
42690;SDS011;28306;55.744;37.578;2022-09-13T12:13:47;4.35;;;1.20;;
42690;SDS011;28306;55.744;37.578;2022-09-13T12:16:36;9.38;;;1.60;;
42690;SDS011;28306;55.744;37.578;2022-09-13T12:21:40;10.10;;;2.15;;
42690;SDS011;28306;55.744;37.578;2022-09-13T12:24:20;4.20;;;2.20;;
42690;SDS011;28306;55.744;37.578;2022-09-13T12:27:08;11.55;;;2.47;;
42690;SDS011;28306;55.744;37.578;2022-09-13T12:29:47;5.05;;;1.60;;
42690;SDS011;28306;55.744;37.578;2022-09-13T12:32:13;6.07;;;2.10;;
42690;SDS011;28306;55.744;37.578;2022-09-13T12:40:04;13.80;;;1.80;;
42690;SDS011;28306;55.744;37.578;2022-09-13T12:57:22;10.55;;;1.63;;
42690;SDS011;28306;55.744;37.578;2022-09-13T13:02:23;8.93;;;1.60;;
42690;SDS011;28306;55.744;37.578;2022-09-13T13:04:51;2.75;;;1.50;;
42690;SDS011;28306;55.744;37.578;2022-09-13T13:07:20;10.55;;;2.05;;
42690;SDS011;28306;55.744;37.578;2022-09-13T13:09:48;9.35;;;1.92;;
42690;SDS011;28306;55.744;37.578;2022-09-13T13:14:58;7.05;;;1.92;;
42690;SDS011;28306;55.744;37.578;2022-09-13T13:17:44;11.38;;;1.73;;
42690;SDS011;28306;55.744;37.578;2022-09-13T13:23:19;8.27;;;1.60;;
42690;SDS011;28306;55.744;37.578;2022-09-13T13:33:53;8.75;;;2.10;;
42690;SDS011;28306;55.744;37.578;2022-09-13T13:36:26;8.32;;;1.75;;
42690;SDS011;28306;55.744;37.578;2022-09-13T14:00:04;10.85;;;1.42;;
42690;SDS011;28306;55.744;37.578;2022-09-13T14:08:06;7.30;;;1.67;;
42690;SDS011;28306;55.744;37.578;2022-09-13T14:20:59;2.97;;;1.30;;
42690;SDS011;28306;55.744;37.578;2022-09-13T14:23:26;2.92;;;1.77;;
42690;SDS011;28306;55.744;37.578;2022-09-13T14:25:53;3.28;;;1.33;;
42690;SDS011;28306;55.744;37.578;2022-09-13T14:28:22;5.10;;;1.30;;
42690;SDS011;28306;55.744;37.578;2022-09-13T14:30:50;6.05;;;1.70;;
42690;SDS011;28306;55.744;37.578;2022-09-13T14:33:29;4.03;;;1.38;;
42690;SDS011;28306;55.744;37.578;2022-09-13T14:36:20;6.63;;;1.50;;
42690;SDS011;28306;55.744;37.578;2022-09-13T14:39:07;4.68;;;1.42;;
42690;SDS011;28306;55.744;37.578;2022-09-13T14:41:35;3.10;;;1.30;;
42690;SDS011;28306;55.744;37.578;2022-09-13T14:46:59;3.00;;;1.38;;
42690;SDS011;28306;55.744;37.578;2022-09-13T14:49:42;2.40;;;1.13;;
42690;SDS011;28306;55.744;37.578;2022-09-13T14:52:56;2.97;;;1.35;;
42690;SDS011;28306;55.744;37.578;2022-09-13T14:55:10;3.60;;;1.40;;
42690;SDS011;28306;55.744;37.578;2022-09-13T14:57:45;7.22;;;1.17;;
42690;SDS011;28306;55.744;37.578;2022-09-13T15:03:00;2.20;;;1.08;;
42690;SDS011;28306;55.744;37.578;2022-09-13T15:05:30;6.65;;;1.25;;
42690;SDS011;28306;55.744;37.578;2022-09-13T15:07:57;3.50;;;1.50;;
42690;SDS011;28306;55.744;37.578;2022-09-13T15:10:25;3.47;;;1.33;;
42690;SDS011;28306;55.744;37.578;2022-09-13T15:17:50;2.55;;;1.30;;
42690;SDS011;28306;55.744;37.578;2022-09-13T15:20:46;6.80;;;1.75;;
42690;SDS011;28306;55.744;37.578;2022-09-13T15:25:49;4.20;;;1.30;;
42690;SDS011;28306;55.744;37.578;2022-09-13T15:28:21;4.55;;;1.35;;
42690;SDS011;28306;55.744;37.578;2022-09-13T15:30:52;6.63;;;1.60;;
42690;SDS011;28306;55.744;37.578;2022-09-13T15:33:29;3.35;;;1.17;;
42690;SDS011;28306;55.744;37.578;2022-09-13T15:36:24;5.50;;;1.35;;
42690;SDS011;28306;55.744;37.578;2022-09-13T15:41:34;5.20;;;1.30;;
42690;SDS011;28306;55.744;37.578;2022-09-13T15:44:02;8.00;;;1.60;;
42690;SDS011;28306;55.744;37.578;2022-09-13T15:46:30;4.85;;;1.13;;
42690;SDS011;28306;55.744;37.578;2022-09-13T15:48:57;6.75;;;1.23;;
42690;SDS011;28306;55.744;37.578;2022-09-13T15:51:25;3.65;;;1.30;;
42690;SDS011;28306;55.744;37.578;2022-09-13T15:53:50;4.82;;;1.02;;
42690;SDS011;28306;55.744;37.578;2022-09-13T15:56:17;4.28;;;1.30;;
42690;SDS011;28306;55.744;37.578;2022-09-13T15:58:45;4.93;;;1.08;;
42690;SDS011;28306;55.744;37.578;2022-09-13T16:01:12;3.83;;;1.75;;
42690;SDS011;28306;55.744;37.578;2022-09-13T16:03:39;2.38;;;1.10;;
42690;SDS011;28306;55.744;37.578;2022-09-13T16:06:08;2.75;;;1.10;;
42690;SDS011;28306;55.744;37.578;2022-09-13T16:08:38;2.72;;;1.38;;
42690;SDS011;28306;55.744;37.578;2022-09-13T16:11:04;2.67;;;1.30;;
42690;SDS011;28306;55.744;37.578;2022-09-13T16:13:31;3.15;;;1.10;;
42690;SDS011;28306;55.744;37.578;2022-09-13T16:15:57;2.55;;;1.20;;
42690;SDS011;28306;55.744;37.578;2022-09-13T16:18:23;3.25;;;1.58;;
42690;SDS011;28306;55.744;37.578;2022-09-13T16:20:49;1.75;;;0.77;;
42690;SDS011;28306;55.744;37.578;2022-09-13T16:23:15;3.08;;;1.10;;
42690;SDS011;28306;55.744;37.578;2022-09-13T16:25:41;2.80;;;1.20;;
42690;SDS011;28306;55.744;37.578;2022-09-13T16:28:07;3.90;;;1.00;;
42690;SDS011;28306;55.744;37.578;2022-09-13T16:30:40;2.22;;;1.02;;
42690;SDS011;28306;55.744;37.578;2022-09-13T16:33:05;2.78;;;1.30;;
42690;SDS011;28306;55.744;37.578;2022-09-13T16:35:31;4.85;;;1.73;;
42690;SDS011;28306;55.744;37.578;2022-09-13T16:37:57;3.15;;;1.00;;
42690;SDS011;28306;55.744;37.578;2022-09-13T16:40:23;4.30;;;0.98;;
42690;SDS011;28306;55.744;37.578;2022-09-13T16:42:49;2.63;;;1.05;;
42690;SDS011;28306;55.744;37.578;2022-09-13T16:45:14;5.00;;;1.10;;
42690;SDS011;28306;55.744;37.578;2022-09-13T16:47:40;2.97;;;1.13;;
42690;SDS011;28306;55.744;37.578;2022-09-13T16:50:06;4.72;;;1.60;;
42690;SDS011;28306;55.744;37.578;2022-09-13T16:52:33;3.28;;;1.00;;
42690;SDS011;28306;55.744;37.578;2022-09-13T16:55:00;2.15;;;1.10;;
42690;SDS011;28306;55.744;37.578;2022-09-13T16:57:26;4.30;;;1.30;;
42690;SDS011;28306;55.744;37.578;2022-09-13T16:59:52;3.28;;;1.20;;
42690;SDS011;28306;55.744;37.578;2022-09-13T17:02:20;2.25;;;1.20;;
42690;SDS011;28306;55.744;37.578;2022-09-13T17:04:46;2.67;;;1.20;;
42690;SDS011;28306;55.744;37.578;2022-09-13T17:07:12;4.70;;;1.20;;
42690;SDS011;28306;55.744;37.578;2022-09-13T17:09:38;2.65;;;1.38;;
42690;SDS011;28306;55.744;37.578;2022-09-13T17:12:08;2.00;;;1.02;;
42690;SDS011;28306;55.744;37.578;2022-09-13T17:14:35;4.63;;;1.08;;
42690;SDS011;28306;55.744;37.578;2022-09-13T17:17:01;2.67;;;1.20;;
42690;SDS011;28306;55.744;37.578;2022-09-13T17:19:29;4.22;;;0.85;;
42690;SDS011;28306;55.744;37.578;2022-09-13T17:22:00;2.25;;;0.93;;
42690;SDS011;28306;55.744;37.578;2022-09-13T17:24:28;1.73;;;0.90;;
42690;SDS011;28306;55.744;37.578;2022-09-13T17:26:55;2.03;;;1.00;;
42690;SDS011;28306;55.744;37.578;2022-09-13T17:29:22;3.92;;;1.23;;
42690;SDS011;28306;55.744;37.578;2022-09-13T17:34:21;3.85;;;1.17;;
42690;SDS011;28306;55.744;37.578;2022-09-13T17:36:47;2.40;;;1.20;;
42690;SDS011;28306;55.744;37.578;2022-09-13T17:39:13;1.83;;;1.00;;
42690;SDS011;28306;55.744;37.578;2022-09-13T17:41:38;3.05;;;0.88;;
42690;SDS011;28306;55.744;37.578;2022-09-13T17:44:04;1.67;;;0.98;;
42690;SDS011;28306;55.744;37.578;2022-09-13T17:46:30;1.58;;;0.95;;
42690;SDS011;28306;55.744;37.578;2022-09-13T17:48:57;3.63;;;1.17;;
42690;SDS011;28306;55.744;37.578;2022-09-13T17:51:24;2.75;;;1.20;;
42690;SDS011;28306;55.744;37.578;2022-09-13T17:53:52;3.03;;;0.98;;
42690;SDS011;28306;55.744;37.578;2022-09-13T17:56:26;3.78;;;1.20;;
42690;SDS011;28306;55.744;37.578;2022-09-13T17:59:11;3.95;;;1.25;;
42690;SDS011;28306;55.744;37.578;2022-09-13T18:01:39;2.80;;;1.10;;
42690;SDS011;28306;55.744;37.578;2022-09-13T18:04:09;1.88;;;0.90;;
42690;SDS011;28306;55.744;37.578;2022-09-13T18:06:36;2.20;;;1.00;;
42690;SDS011;28306;55.744;37.578;2022-09-13T18:09:06;2.88;;;1.38;;
42690;SDS011;28306;55.744;37.578;2022-09-13T18:11:31;1.45;;;1.00;;
42690;SDS011;28306;55.744;37.578;2022-09-13T18:13:57;2.30;;;1.15;;
42690;SDS011;28306;55.744;37.578;2022-09-13T18:16:24;3.33;;;1.27;;
42690;SDS011;28306;55.744;37.578;2022-09-13T18:18:51;1.95;;;1.02;;
42690;SDS011;28306;55.744;37.578;2022-09-13T18:21:18;3.20;;;1.02;;
42690;SDS011;28306;55.744;37.578;2022-09-13T18:23:45;2.22;;;0.90;;
42690;SDS011;28306;55.744;37.578;2022-09-13T18:26:13;2.00;;;1.15;;
42690;SDS011;28306;55.744;37.578;2022-09-13T18:28:40;2.33;;;1.20;;
42690;SDS011;28306;55.744;37.578;2022-09-13T18:31:08;2.78;;;1.10;;
42690;SDS011;28306;55.744;37.578;2022-09-13T18:33:37;2.42;;;1.00;;
42690;SDS011;28306;55.744;37.578;2022-09-13T18:36:10;1.63;;;1.02;;
42690;SDS011;28306;55.744;37.578;2022-09-13T18:38:38;2.03;;;1.02;;
42690;SDS011;28306;55.744;37.578;2022-09-13T18:41:10;2.75;;;0.90;;
42690;SDS011;28306;55.744;37.578;2022-09-13T18:43:37;2.45;;;1.17;;
42690;SDS011;28306;55.744;37.578;2022-09-13T18:46:06;2.25;;;1.10;;
42690;SDS011;28306;55.744;37.578;2022-09-13T18:48:35;1.70;;;1.13;;
42690;SDS011;28306;55.744;37.578;2022-09-13T18:51:02;2.10;;;1.00;;
42690;SDS011;28306;55.744;37.578;2022-09-13T18:53:29;1.40;;;0.90;;
42690;SDS011;28306;55.744;37.578;2022-09-13T18:55:58;2.20;;;1.20;;